AirNav   Free SoundLink Mini II speaker
 
 1348 users online  

08KT Methodist Hospital Union County Heliport
Morganfield, Kentucky, USA

GOING TO MORGANFIELD?


FAA INFORMATION EFFECTIVE 26 MARCH 2020

Location

FAA Identifier: 08KT
Lat/Long: 37-37-42.0000N 087-56-49.2000W
37-37.700000N 087-56.820000W
37.6283333,-87.9470000
(estimated)
Elevation: 435 ft. / 133 m (estimated)
From city: 5 miles E of MORGANFIELD, KY
Time zone: UTC -5 (UTC -6 during Standard Time)
Zip code: 42437

Heliport Operations

Heliport use: Private use. Permission required prior to landing
Activation date: 11/2015
Control tower: no
ARTCC: INDIANAPOLIS CENTER
FSS: LOUISVILLE FLIGHT SERVICE STATION
Attendance: CONTINUOUS
Wind indicator: lighted
Segmented circle: no
Beacon: white-green-yellow (heliport)
Operates sunset to sunrise.

Heliport Communications

WX AWOS-3 at TWT (5 nm S): 118.775 (270-333-2967)
WX AWOS-3PT at EHR (16 nm NE): 118.85 (270-826-0511)
WX AWOS-3P at 5M9 (19 nm SW): 118.15 (270-965-4877)

Nearby radio navigation aids

VOR radial/distance  VOR name  Freq  Var
PXVr203/20.0POCKET CITY VORTAC113.3003E
CCTr295/35.7CENTRAL CITY VORTAC109.8001W
OWBr263/37.7OWENSBORO VOR/DME108.6004W

Heliport Services

Runway Information

Helipad H1

Dimensions: 40 x 40 ft. / 12 x 12 m
Surface: concrete
Traffic pattern: leftleft

Heliport Ownership and Management from official FAA records

Ownership: Privately-owned
Owner: METHODIST HOSPITAL UNION COUNTY
4604 US HWY 60 WEST
MORGANFIELD, KY 42437
Phone 270-389-5000
Manager: KENNY WRIGHT
4604 US HWY 60 WEST
MORGANFIELD, KY 42437
Phone 270-389-5000

Additional Remarks

FOR CD CTC INDIANAPOLIS ARTCC AT 317-247-2411.

Instrument Procedures

There are no published instrument procedures at 08KT.

Some nearby airports with instrument procedures:

KTWT - Sturgis Municipal Airport (5 nm S)
KEHR - Henderson City-County Airport (16 nm NE)
5M9 - Marion-Crittenden County Airport (19 nm SW)
KCUL - Carmi Municipal Airport (29 nm N)
KHSB - Harrisburg-Raleigh Airport (31 nm W)
 
Loc | Ops | Rwys | IFR | FBO | Links
Com | Nav | Svcs | Stats | Notes
Aerial photo
No photo
 
Airport distance calculator
Flying to Methodist Hospital Union County Heliport? Find the distance to fly.

From to 08KT

Sunrise and sunset
Times for 09-Apr-2020
 Local
(UTC-5)
 Zulu
(UTC)
Morning civil twilight05:5810:58
Sunrise06:2511:25
Sunset19:2100:21
Evening civil twilight19:4800:48

Current date and time
Zulu (UTC)  09-Apr-2020 19:14:27
Local (UTC-5)  09-Apr-2020 14:14:27
 
METAR
KEHR 
17nm NE 
091856Z AUTO 32017G21KT 10SM CLR 16/M01 A2989 RMK AO2 SLP119 T01561011
K5M9 
19nm SW 
091855Z AUTO 28008KT 260V330 10SM CLR 16/M04 A2989 RMK AO2 T01641040
KCUL 
29nm N 
091858Z AUTO 36013G19KT 10SM CLR 14/00 A2988 RMK AO2
KHSB 
31nm W 
091855Z AUTO 29006G09KT 10SM CLR 15/M01 A2991 RMK AO2 T01531013
K2I0 
31nm SE 
091855Z AUTO 31013G18KT 10SM CLR 16/M06 A2988 RMK AO2 T01621057
KEVV 
32nm NE 
091854Z 29010G23KT 10SM CLR 14/M02 A2988 RMK AO2 SLP118 T01441022
TAF
KEVV 
32nm NE 
091720Z 0918/1018 30014G23KT P6SM FEW070 SCT150 FM092100 30016G28KT P6SM BKN080 FM100500 32013G22KT P6SM SKC FM100700 31010KT P6SM SKC
KOWB 
37nm E 
091720Z 0918/1018 30014G24KT P6SM FEW070 SCT150 FM092200 30016G29KT P6SM BKN080 FM100700 32011G20KT P6SM SKC FM100900 31009KT P6SM SKC
NOTAMs
Click for the latest NOTAMs
NOTAMs are issued by the DoD/FAA and will open in a separate window not controlled by AirNav.

 

 
 

Would you like to see your business listed on this page?

 If your business provides an interesting product or service to pilots, flight crews, aircraft, or users of the Methodist Hospital Union County Heliport, you should consider listing it here.  To start the listing process, click on the button below
 
Add a business
 

Other Pages about Methodist Hospital Union County Heliport

Update a link
 
Copyright © AirNav, LLC. All rights reserved. Privacy Policy  Contact